WETTERDATEN

HEUTE
Time Temp. Taup. r.Fe. Windrich Windstärke Windböe Druck 1h Prec. 24h Prec.
00:09 16.1 10.6 70 356 0.3 1.1 1017.9 0.0000 0.0000
00:19 16 10.5 70 347 0.8 2.2 1017.9 0.0000 0.0000
00:29 15.9 10.4 70 336 0.8 2.2 1018 0.0000 0.0000
00:39 15.7 10.5 71 340 0.3 1.4 1018 0.0000 0.0000
00:50 15.5 10.5 72 340 0.8 1.7 1018.1 0.0000 0.0000
01:00 15.4 10.4 72 332 1.1 2.8 1018.2 0.0000 0.0000
01:09 15.3 10.5 73 333 0.8 2.5 1018.2 0.0000 0.0000
01:19 15.3 10.7 74 346 0.3 1.7 1018.1 0.0000 0.0000
01:30 15.2 10.6 74 330 0.8 1.7 1018.1 0.0000 0.0000
01:40 15.1 10.5 74 3 0.3 1.7 1018.1 0.0000 0.0000
01:50 15 10.4 74 345 0.3 1.4 1018.1 0.0000 0.0000
02:00 14.9 10.3 74 328 0.8 1.7 1018.1 0.0000 0.0000
02:10 14.7 10.3 75 340 0.3 1.4 1018.2 0.0000 0.0000
02:20 14.5 10.1 75 341 0.8 1.4 1018 0.0000 0.0000
02:30 14.4 10.2 76 351 0.3 1.1 1017.9 0.0000 0.0000
02:41 14.2 10 76 348 0.3 1.4 1017.9 0.0000 0.0000
02:51 14.1 10.1 77 0 0.3 1.1 1017.9 0.0000 0.0000
03:00 14 10 77 0 0.3 1.7 1017.8 0.0000 0.0000
03:11 13.9 10.1 78 8 0.3 1.4 1017.7 0.0000 0.0000
03:21 13.9 10.1 78 39 0.3 1.1 1017.7 0.0000 0.0000
03:31 13.9 10.1 78 40 0.3 1.4 1017.6 0.0000 0.0000
03:41 13.9 10.1 78 45 0.8 1.4 1017.6 0.0000 0.0000
03:51 13.9 10.1 78 59 0.3 1.1 1017.6 0.0000 0.0000
04:01 13.8 10 78 14 0.3 1.1 1017.6 0.0000 0.0000
04:11 13.7 9.9 78 14 0.3 1.4 1017.5 0.0000 0.0000
04:21 13.6 9.8 78 0 0.3 1.4 1017.5 0.0000 0.0000
04:32 13.5 9.9 79 6 0.3 1.4 1017.5 0.0000 0.0000
04:41 13.4 9.8 79 20 0.3 1.4 1017.6 0.0000 0.0000
04:51 13.3 9.7 79 11 0.3 1.7 1017.7 0.0000 0.0000
05:02 13.1 9.7 80 357 0.8 2.8 1017.8 0.0000 0.0000
05:12 13 9.6 80 343 0.8 1.7 1017.8 0.0000 0.0000
05:21 13 9.6 80 5 0.3 1.4 1017.8 0.0000 0.0000
05:32 12.9 9.5 80 344 0.3 1.7 1017.8 0.0000 0.0000
05:42 12.8 9.4 80 18 0.3 1.4 1017.9 0.0000 0.0000
05:52 12.8 9.4 80 354 0.3 1.7 1017.8 0.0000 0.0000
06:02 12.9 9.5 80 336 0.8 2.2 1017.8 0.0000 0.0000
06:12 12.9 9.5 80 0 0.8 2.2 1017.7 0.0000 0.0000
06:22 13 9.6 80 0 0.3 2.2 1017.7 0.0000 0.0000
06:32 13.1 9.7 80 350 0.3 1.7 1017.6 0.0000 0.0000
06:42 13.3 9.9 80 0 0.3 1.7 1017.7 0.0000 0.0000
06:53 13.5 10.1 80 16 0.3 1.4 1017.8 0.0000 0.0000
07:02 13.7 10.1 79 36 0.3 1.7 1017.8 0.0000 0.0000
07:12 13.9 10.3 79 36 0.3 1.4 1017.8 0.0000 0.0000
07:23 14.2 10.6 79 13 0.8 2.5 1017.7 0.0000 0.0000
07:33 14.5 10.7 78 41 0.3 1.4 1017.7 0.0000 0.0000
07:43 14.9 11.1 78 53 0.8 1.7 1017.8 0.0000 0.0000
07:53 15.3 11.3 77 40 0.8 2.2 1017.8 0.0000 0.0000
08:03 15.6 11.4 76 18 0.3 1.4 1017.9 0.0000 0.0000
08:13 15.8 11.4 75 64 0.8 1.7 1017.8 0.0000 0.0000
08:23 16.1 11.5 74 8 0.8 2.8 1017.8 0.0000 0.0000
08:34 16.4 11.6 73 8 0.8 3.6 1017.7 0.0000 0.0000
08:44 16.7 11.8 73 70 0.8 2.2 1017.6 0.0000 0.0000
08:53 17 11.9 72 68 1.1 3.6 1017.5 0.0000 0.0000
09:03 17.3 12 71 48 0.8 2.2 1017.5 0.0000 0.0000
09:14 17.6 12.3 71 65 0.8 1.4 1017.3 0.0000 0.0000
09:24 17.9 12.1 69 342 1.1 2.8 1017.2 0.0000 0.0000
09:34 18.3 12.1 67 327 1.1 2.8 1017.1 0.0000 0.0000
09:44 18.6 12.4 67 7 0.8 2.8 1017.1 0.0000 0.0000
09:54 19 12.7 67 70 0.8 2.8 1017.1 0.0000 0.0000
10:04 19.4 12.7 65 23 0.3 1.4 1017.1 0.0000 0.0000
10:14 19.7 12.5 63 347 1.1 2.5 1017.2 0.0000 0.0000
10:25 20.1 12.6 62 326 0.8 1.7 1017.1 0.0000 0.0000
10:34 20.4 12.6 61 45 0.8 1.7 1017.1 0.0000 0.0000
10:44 20.6 12.6 60 340 1.1 2.2 1017.1 0.0000 0.0000
10:55 20.8 12.5 59 29 1.1 2.8 1017.1 0.0000 0.0000
11:05 20.9 12.3 58 323 1.4 3.9 1017.1 0.0000 0.0000
11:15 21.2 12.4 57 1 1.1 3.6 1017 0.0000 0.0000
11:24 21.2 12.1 56 354 1.1 2.8 1017 0.0000 0.0000
11:35 21.5 11.8 54 323 1.4 4.7 1016.9 0.0000 0.0000
11:45 21.7 12 54 5 1.1 5 1016.9 0.0000 0.0000
11:55 21.6 11.3 52 340 0.8 2.5 1016.7 0.0000 0.0000
12:05 21.7 11.7 53 306 1.4 3.6 1016.6 0.0000 0.0000
12:15 22.1 11.8 52 54 1.1 2.5 1016.5 0.0000 0.0000
12:25 22.2 11.3 50 1 1.1 2.8 1016.5 0.0000 0.0000
12:35 22.2 11.3 50 68 1.1 2.2 1016.3 0.0000 0.0000
12:46 22.4 11.5 50 335 1.4 3.6 1016.3 0.0000 0.0000
12:56 22.9 11.3 48 34 0.8 1.7 1016.1 0.0000 0.0000
13:05 23.1 11.2 47 0 0.8 2.5 1016 0.0000 0.0000
13:16 23 10.8 46 3 1.1 2.8 1016 0.0000 0.0000
13:26 23.4 10.8 45 344 1.1 2.5 1015.8 0.0000 0.0000
13:36 23.7 10.4 43 343 0.8 3.6 1015.8 0.0000 0.0000
13:46 23.8 10.5 43 332 1.4 4.7 1015.8 0.0000 0.0000
13:56 23.8 10.1 42 332 0.8 2.2 1015.5 0.0000 0.0000
14:06 24 10.3 42 334 1.4 3.6 1015.6 0.0000 0.0000
14:16 24.2 10.1 41 352 0.8 2.2 1015.5 0.0000 0.0000
14:26 24.4 9.9 40 329 0.8 3.3 1015.4 0.0000 0.0000
14:37 24.4 9.2 38 281 1.1 3.3 1015.3 0.0000 0.0000
14:47 24.3 8.7 37 40 1.1 2.5 1015.2 0.0000 0.0000
14:56 24.2 9 38 45 0.3 2.5 1015 0.0000 0.0000
15:07 24.3 8.7 37 135 0.8 2.2 1014.9 0.0000 0.0000
15:17 24.5 8.5 36 48 0.8 2.2 1014.8 0.0000 0.0000
15:27 24.6 9 37 60 0.8 1.7 1014.8 0.0000 0.0000
15:37 24.7 9 37 339 0.8 2.5 1014.6 0.0000 0.0000
15:47 24.8 8.3 35 333 1.1 4.2 1014.6 0.0000 0.0000
15:57 24.8 7.9 34 52 0.8 1.7 1014.5 0.0000 0.0000
16:07 24.9 8.4 35 324 0.8 1.4 1014.4 0.0000 0.0000
16:18 25.1 8.2 34 332 1.4 4.2 1014.3 0.0000 0.0000
16:28 25.3 7.9 33 315 0.3 1.7 1014.3 0.0000 0.0000
16:37 25.4 7.5 32 347 0.8 2.5 1014.1 0.0000 0.0000
16:47 25.6 8.2 33 6 0.8 2.5 1014.1 0.0000 0.0000
16:58 25.6 7.7 32 326 1.4 3.3 1014.1 0.0000 0.0000
17:08 25.7 7.8 32 310 1.1 2.8 1014 0.0000 0.0000
17:18 25.9 8 32 4 0.3 1.7 1014 0.0000 0.0000
17:28 25.9 7.5 31 25 0.8 2.2 1013.8 0.0000 0.0000
17:38 25.9 7.5 31 90 0.3 1.4 1013.7 0.0000 0.0000
17:48 25.5 8.1 33 79 1.1 2.5 1013.7 0.0000 0.0000
17:58 25.1 8.2 34 90 1.1 2.2 1013.6 0.0000 0.0000
18:09 24.7 8.6 36 107 1.1 1.7 1013.6 0.0000 0.0000
18:18 24.6 9 37 90 1.1 2.2 1013.6 0.0000 0.0000
18:28 24.3 8.7 37 90 1.1 2.2 1013.6 0.0000 0.0000
18:38 24 8.8 38 90 1.1 1.7 1013.5 0.0000 0.0000
18:49 23.9 9.1 39 90 0.8 1.7 1013.4 0.0000 0.0000
18:59 23.7 9.3 40 90 0.8 1.7 1013.4 0.0000 0.0000
19:08 23.5 8.8 39 81 1.1 2.2 1013.4 0.0000 0.0000
19:19 23.2 8.9 40 90 0.8 1.4 1013.5 0.0000 0.0000
19:29 23.1 9.1 41 90 0.8 1.4 1013.5 0.0000 0.0000
19:39 22.9 9 41 90 0.3 1.4 1013.6 0.0000 0.0000
19:49 22.7 9.5 43 90 0.8 1.1 1013.6 0.0000 0.0000
19:59 22.5 10 45 90 0.8 1.4 1013.7 0.0000 0.0000
20:09 22.3 9.8 45 90 0.3 1.1 1013.6 0.0000 0.0000
20:19 22 9.5 45 45 0.3 0.8 1013.5 0.0000 0.0000
20:30 21.8 10 47 45 0.3 0.8 1013.6 0.0000 0.0000
20:40 21.4 9.9 48 90 0.8 1.4 1013.6 0.0000 0.0000
20:50 21 9.6 48 90 0.3 0.8 1013.6 0.0000 0.0000
20:59 20.6 9.5 49 90 0.3 0.8 1013.6 0.0000 0.0000
21:10 20.2 9.5 50 90 0.3 0.8 1013.7 0.0000 0.0000
21:20 19.7 9.3 51 0 0.3 1.1 1013.7 0.0000 0.0000
21:29 19.3 9.5 53 26 0.3 0.8 1013.6 0.0000 0.0000
21:40 18.9 9.7 55 90 0.3 0.8 1013.7 0.0000 0.0000
21:50 18.5 9.6 56 349 0.3 1.1 1013.7 0.0000 0.0000

TAGESSTATISTIK

2024-07-25
TEMPERATUR
MITTEL
19.3
MAXIMUM
25.9
17:18
MINIMUM
12.8
05:42
LUFTDRUCK
MITTEL
1016.2
MAXIMUM
1018.2
01:00
MINIMUM
1013.4
18:49
TAUPUNKT
MITTEL
10.1
MAXIMUM
12.7
09:54
MINIMUM
7.5
16:37
FEUCHTIGKEIT
MITTEL
59
MAXIMUM
80
05:02
MINIMUM
31
17:28
WINDSTÄRKE
MITTEL
0.7
MAXIMUM
1.4
11:05
WINDBÖE
MITTEL
2.1
MAXIMUM
5.0
11:45
WINDRICHTUNG
VORHERRSCHENDE
N
42.3%
N
42.3
NO
20.0
O
19.2
SO
0.8
S
0.0
SW
0.0
W
0.8
NW
16.9
NIEDERSCHLAG
REGEN STUNDE
0.0
REGEN TAG
0.0
TEMPERATUR (°C)
MINIMUM
12.8
MAXIMUM
25.9
MITTEL
19.3
LUFTDRUCK (hpa)
MINIMUM
1013.4
MAXIMUM
1018.2
MITTEL
1016.2
MESSGERÄT